Time;durP1;ratioP1;P1;durP2;ratioP2;P2;SDS_P1;SDS_P2;PMS_P1;PMS_P2;Temp;Humidity;BMP_temperature;BMP_pressure;BME280_temperature;BME280_humidity;BME280_pressure;Samples;Min_cycle;Max_cycle;Signal;HPM_P1;HPM_P2
2021/12/09 00:01:02;;;;;;;6.63;1.67;;;;;;;;;;5030947;28;20269;-74
2021/12/09 00:03:34;;;;;;;6.63;2.00;;;;;;;;;;5026291;28;20025;-73
2021/12/09 00:06:00;;;;;;;3.75;1.40;;;;;;;;;;5035838;28;20040;-76
2021/12/09 00:08:28;;;;;;;7.38;1.73;;;;;;;;;;5031927;28;20079;-77
2021/12/09 00:10:59;;;;;;;8.85;1.60;;;;;;;;;;5028942;28;20033;-76
2021/12/09 00:13:27;;;;;;;3.53;1.50;;;;;;;;;;5040764;28;20898;-77
2021/12/09 00:15:53;;;;;;;5.03;2.05;;;;;;;;;;5030905;28;20060;-76
2021/12/09 00:18:19;;;;;;;4.20;1.63;;;;;;;;;;5032993;28;20029;-77
2021/12/09 00:20:46;;;;;;;3.90;1.95;;;;;;;;;;5030039;28;20025;-76
2021/12/09 00:23:12;;;;;;;5.63;1.70;;;;;;;;;;5034878;28;20059;-76
2021/12/09 00:25:38;;;;;;;3.63;1.40;;;;;;;;;;5030304;28;20087;-77
2021/12/09 00:28:05;;;;;;;6.22;2.38;;;;;;;;;;5031763;28;20045;-76
2021/12/09 00:30:32;;;;;;;5.53;1.92;;;;;;;;;;5037273;28;20536;-75
2021/12/09 00:33:02;;;;;;;4.32;1.73;;;;;;;;;;5032685;28;20037;-76
2021/12/09 00:35:34;;;;;;;6.53;1.70;;;;;;;;;;5030053;28;20578;-76
2021/12/09 00:38:07;;;;;;;6.03;1.92;;;;;;;;;;5029668;28;20025;-75
2021/12/09 00:40:33;;;;;;;8.77;2.13;;;;;;;;;;5029212;28;20034;-76
2021/12/09 00:43:00;;;;;;;3.58;1.77;;;;;;;;;;5031089;28;20393;-77
2021/12/09 00:45:26;;;;;;;6.13;1.55;;;;;;;;;;5025199;28;20045;-77
2021/12/09 00:47:53;;;;;;;7.28;2.15;;;;;;;;;;5037110;28;20041;-76
2021/12/09 00:50:20;;;;;;;4.43;2.00;;;;;;;;;;5030533;28;20037;-76
2021/12/09 00:52:46;;;;;;;6.38;2.50;;;;;;;;;;5026987;28;20033;-75
2021/12/09 00:55:13;;;;;;;10.35;1.75;;;;;;;;;;5036328;28;20020;-76
2021/12/09 00:57:40;;;;;;;12.73;2.75;;;;;;;;;;5030210;28;20079;-77
2021/12/09 01:00:09;;;;;;;8.15;1.60;;;;;;;;;;5036336;28;20493;-78
2021/12/09 01:02:35;;;;;;;7.85;1.60;;;;;;;;;;5036408;28;20401;-76
2021/12/09 01:05:03;;;;;;;4.43;1.25;;;;;;;;;;5034160;28;20021;-76
2021/12/09 01:07:29;;;;;;;7.30;1.73;;;;;;;;;;5037108;28;20052;-77
2021/12/09 01:09:55;;;;;;;12.00;2.20;;;;;;;;;;5034962;28;20022;-77
2021/12/09 01:12:21;;;;;;;3.78;1.23;;;;;;;;;;5039276;28;20037;-76
2021/12/09 01:14:48;;;;;;;6.53;0.93;;;;;;;;;;5038118;28;20029;-78
2021/12/09 01:17:14;;;;;;;4.00;0.70;;;;;;;;;;5034411;28;20523;-76
2021/12/09 01:19:40;;;;;;;2.83;0.85;;;;;;;;;;5032855;28;20108;-76
2021/12/09 01:22:06;;;;;;;6.78;1.23;;;;;;;;;;5035393;28;20534;-76
2021/12/09 01:24:33;;;;;;;4.80;1.02;;;;;;;;;;5027864;28;20074;-76
2021/12/09 01:27:00;;;;;;;4.38;0.90;;;;;;;;;;5026121;28;20519;-77
2021/12/09 01:29:35;;;;;;;5.25;1.90;;;;;;;;;;5037190;28;20121;-78
2021/12/09 01:32:05;;;;;;;7.30;2.00;;;;;;;;;;5035096;28;20059;-74
2021/12/09 01:34:31;;;;;;;10.48;2.00;;;;;;;;;;5035953;28;20366;-77
2021/12/09 01:36:58;;;;;;;8.27;1.90;;;;;;;;;;5038726;28;20021;-76
2021/12/09 01:39:27;;;;;;;10.48;2.00;;;;;;;;;;5033828;28;20076;-77
2021/12/09 01:41:53;;;;;;;9.55;2.55;;;;;;;;;;5031017;28;20030;-77
2021/12/09 01:44:20;;;;;;;11.40;2.10;;;;;;;;;;5027404;28;20091;-76
2021/12/09 01:46:46;;;;;;;10.23;2.05;;;;;;;;;;5042179;28;20017;-76
2021/12/09 01:49:12;;;;;;;11.20;2.20;;;;;;;;;;5033589;28;20040;-76
2021/12/09 01:51:40;;;;;;;10.73;2.40;;;;;;;;;;5031783;28;20057;-77
2021/12/09 01:54:06;;;;;;;6.57;1.73;;;;;;;;;;5041524;28;20409;-77
2021/12/09 01:56:33;;;;;;;6.35;2.25;;;;;;;;;;5041421;28;20087;-77
2021/12/09 01:59:02;;;;;;;10.70;3.10;;;;;;;;;;5032741;28;20029;-76
2021/12/09 02:01:28;;;;;;;16.30;3.40;;;;;;;;;;5031131;28;20510;-76
2021/12/09 02:03:54;;;;;;;14.65;2.72;;;;;;;;;;5045342;28;20512;-77
2021/12/09 02:06:22;;;;;;;7.55;1.73;;;;;;;;;;5033807;28;20057;-76
2021/12/09 02:08:48;;;;;;;6.55;1.75;;;;;;;;;;5035578;28;20477;-76
2021/12/09 02:11:15;;;;;;;2.58;0.98;;;;;;;;;;5036272;28;20026;-75
2021/12/09 02:13:41;;;;;;;5.38;0.93;;;;;;;;;;5036265;28;20193;-75
2021/12/09 02:16:08;;;;;;;6.65;1.73;;;;;;;;;;5035033;28;20021;-76
2021/12/09 02:18:35;;;;;;;10.48;2.40;;;;;;;;;;5039109;28;20033;-75
2021/12/09 02:21:10;;;;;;;9.50;2.15;;;;;;;;;;5036468;28;20029;-75
2021/12/09 02:23:37;;;;;;;8.63;2.13;;;;;;;;;;5035866;28;20130;-76
2021/12/09 02:26:03;;;;;;;8.38;2.60;;;;;;;;;;5041592;28;20148;-76
2021/12/09 02:28:30;;;;;;;7.63;1.92;;;;;;;;;;5035351;28;20044;-76
2021/12/09 02:30:56;;;;;;;3.15;1.25;;;;;;;;;;5033076;28;20021;-76
2021/12/09 02:33:22;;;;;;;4.75;1.23;;;;;;;;;;5038896;28;20496;-76
2021/12/09 02:35:48;;;;;;;4.07;1.02;;;;;;;;;;5035398;28;20029;-76
2021/12/09 02:38:15;;;;;;;7.22;0.82;;;;;;;;;;5031189;28;20025;-75
2021/12/09 02:40:41;;;;;;;4.22;1.02;;;;;;;;;;5034762;28;20057;-76
2021/12/09 02:43:08;;;;;;;6.85;1.15;;;;;;;;;;5035291;28;20118;-75
2021/12/09 02:45:35;;;;;;;5.78;1.35;;;;;;;;;;5035759;28;20128;-77
2021/12/09 02:48:01;;;;;;;5.65;1.83;;;;;;;;;;5039288;28;20080;-75
2021/12/09 02:50:27;;;;;;;8.10;1.10;;;;;;;;;;5033944;28;20091;-75
2021/12/09 02:52:54;;;;;;;5.45;1.05;;;;;;;;;;5033848;28;20025;-75
2021/12/09 02:55:20;;;;;;;4.82;1.00;;;;;;;;;;5042489;28;20025;-76
2021/12/09 02:57:46;;;;;;;7.28;1.50;;;;;;;;;;5034186;28;20028;-76
2021/12/09 03:00:13;;;;;;;6.13;1.25;;;;;;;;;;5029263;28;20042;-76
2021/12/09 03:02:42;;;;;;;3.58;0.90;;;;;;;;;;5041051;28;20556;-76
2021/12/09 03:05:09;;;;;;;3.50;0.88;;;;;;;;;;5032025;28;20025;-75
2021/12/09 03:07:37;;;;;;;5.13;1.05;;;;;;;;;;5032843;28;20037;-75
2021/12/09 03:10:04;;;;;;;3.92;1.08;;;;;;;;;;5036222;28;20029;-76
2021/12/09 03:12:34;;;;;;;4.68;0.80;;;;;;;;;;5032974;28;20041;-76
2021/12/09 03:15:02;;;;;;;7.75;1.00;;;;;;;;;;5031863;28;20025;-76
2021/12/09 03:17:28;;;;;;;2.35;0.50;;;;;;;;;;5035414;28;20042;-76
2021/12/09 03:19:55;;;;;;;5.63;1.00;;;;;;;;;;5031347;28;20100;-75
2021/12/09 03:22:21;;;;;;;6.13;0.85;;;;;;;;;;5032307;28;20355;-75
2021/12/09 03:24:48;;;;;;;5.57;0.73;;;;;;;;;;5034114;28;20033;-76
2021/12/09 03:27:14;;;;;;;2.50;0.80;;;;;;;;;;5030339;28;20052;-76
2021/12/09 03:29:41;;;;;;;3.25;0.80;;;;;;;;;;5032925;28;20049;-76
2021/12/09 03:32:09;;;;;;;3.35;0.90;;;;;;;;;;5036781;28;20028;-77
2021/12/09 03:34:36;;;;;;;4.05;0.60;;;;;;;;;;5031097;28;20222;-76
2021/12/09 03:37:05;;;;;;;3.25;0.70;;;;;;;;;;5033878;28;20393;-75
2021/12/09 03:39:33;;;;;;;5.10;0.45;;;;;;;;;;5032590;28;20026;-75
2021/12/09 03:42:00;;;;;;;5.78;0.90;;;;;;;;;;5032677;28;20033;-74
2021/12/09 03:44:28;;;;;;;3.75;0.90;;;;;;;;;;5041337;28;20024;-76
2021/12/09 03:46:55;;;;;;;4.05;0.90;;;;;;;;;;5034606;28;20116;-76
2021/12/09 03:49:23;;;;;;;3.60;1.48;;;;;;;;;;5031217;28;20036;-76
2021/12/09 03:51:49;;;;;;;2.63;1.27;;;;;;;;;;5034204;28;20037;-76
2021/12/09 03:54:15;;;;;;;4.57;0.95;;;;;;;;;;5032536;28;20037;-77
2021/12/09 03:56:42;;;;;;;3.63;1.05;;;;;;;;;;5033590;28;20025;-76
2021/12/09 03:59:11;;;;;;;4.47;0.85;;;;;;;;;;5036262;28;20026;-76
2021/12/09 04:01:38;;;;;;;2.80;0.60;;;;;;;;;;5030467;28;20037;-76
2021/12/09 04:04:05;;;;;;;3.00;0.80;;;;;;;;;;5033015;28;20543;-74
2021/12/09 04:06:31;;;;;;;4.15;0.80;;;;;;;;;;5028888;28;20036;-77
2021/12/09 04:08:58;;;;;;;4.40;0.80;;;;;;;;;;5026479;28;20095;-77
2021/12/09 04:11:25;;;;;;;3.75;0.52;;;;;;;;;;5031442;28;20039;-77
2021/12/09 04:13:51;;;;;;;6.07;0.95;;;;;;;;;;5025575;28;20279;-76
2021/12/09 04:16:17;;;;;;;2.92;0.57;;;;;;;;;;5029593;28;20787;-76
2021/12/09 04:18:44;;;;;;;4.10;0.70;;;;;;;;;;5030923;28;20064;-76
2021/12/09 04:21:12;;;;;;;5.47;0.98;;;;;;;;;;5029220;28;20024;-76
2021/12/09 04:23:38;;;;;;;4.72;1.13;;;;;;;;;;5025421;28;20482;-77
2021/12/09 04:26:05;;;;;;;1.60;0.38;;;;;;;;;;5033122;28;20063;-76
2021/12/09 04:28:31;;;;;;;2.58;0.50;;;;;;;;;;5023696;28;20267;-77
2021/12/09 04:30:58;;;;;;;3.42;0.73;;;;;;;;;;5023927;28;20036;-77
2021/12/09 04:33:24;;;;;;;1.40;0.50;;;;;;;;;;5035209;28;20034;-76
2021/12/09 04:35:50;;;;;;;3.10;0.50;;;;;;;;;;5023147;28;20025;-76
2021/12/09 04:38:16;;;;;;;4.30;0.60;;;;;;;;;;5034820;28;20029;-77
2021/12/09 04:40:43;;;;;;;3.58;0.60;;;;;;;;;;5029967;28;20036;-76
2021/12/09 04:43:09;;;;;;;2.50;0.50;;;;;;;;;;5030141;28;20040;-76
2021/12/09 04:45:38;;;;;;;1.75;0.50;;;;;;;;;;5034104;28;20110;-77
2021/12/09 04:48:04;;;;;;;1.23;0.30;;;;;;;;;;5027167;28;20033;-76
2021/12/09 04:50:31;;;;;;;1.60;0.40;;;;;;;;;;5023727;28;20048;-77
2021/12/09 04:52:58;;;;;;;1.95;0.38;;;;;;;;;;5028571;28;20031;-76
2021/12/09 04:55:24;;;;;;;1.25;0.30;;;;;;;;;;5031671;28;20721;-76
2021/12/09 04:57:50;;;;;;;1.38;0.35;;;;;;;;;;5026593;28;20544;-77
2021/12/09 05:00:19;;;;;;;1.90;0.20;;;;;;;;;;5024805;28;20049;-76
2021/12/09 05:03:03;;;;;;;1.38;0.30;;;;;;;;;;5035654;28;20533;-76
2021/12/09 05:05:35;;;;;;;5.97;0.82;;;;;;;;;;5023889;28;20628;-76
2021/12/09 05:08:03;;;;;;;1.75;0.30;;;;;;;;;;5023014;28;20025;-76
2021/12/09 05:10:34;;;;;;;1.77;0.35;;;;;;;;;;5037744;28;20032;-76
2021/12/09 05:13:00;;;;;;;3.03;0.35;;;;;;;;;;5024810;28;20109;-76
2021/12/09 05:15:26;;;;;;;1.25;0.38;;;;;;;;;;5023138;28;20615;-76
2021/12/09 05:17:53;;;;;;;1.27;0.25;;;;;;;;;;5023785;28;20484;-76
2021/12/09 05:20:19;;;;;;;0.45;0.22;;;;;;;;;;5030290;28;20068;-76
2021/12/09 05:22:45;;;;;;;1.30;0.30;;;;;;;;;;5029962;28;20459;-77
2021/12/09 05:25:11;;;;;;;2.65;0.30;;;;;;;;;;5024419;28;20025;-77
2021/12/09 05:27:38;;;;;;;1.48;0.10;;;;;;;;;;5036376;28;20032;-77
2021/12/09 05:30:08;;;;;;;0.85;0.20;;;;;;;;;;5025626;28;20075;-76
2021/12/09 05:32:34;;;;;;;0.20;0.08;;;;;;;;;;5033036;28;20394;-76
2021/12/09 05:35:02;;;;;;;0.65;0.20;;;;;;;;;;5034414;28;20490;-76
2021/12/09 05:37:28;;;;;;;2.72;0.30;;;;;;;;;;5028029;28;20034;-76
2021/12/09 05:39:55;;;;;;;1.08;0.20;;;;;;;;;;5027197;28;20037;-76
2021/12/09 05:42:22;;;;;;;1.45;0.32;;;;;;;;;;5037196;28;20033;-76
2021/12/09 05:44:49;;;;;;;0.40;0.20;;;;;;;;;;5029875;28;20108;-77
2021/12/09 05:47:15;;;;;;;1.67;0.40;;;;;;;;;;5024696;28;20114;-75
2021/12/09 05:49:43;;;;;;;2.00;0.40;;;;;;;;;;5033269;28;20068;-76
2021/12/09 05:52:09;;;;;;;2.15;1.20;;;;;;;;;;5026887;28;20159;-76
2021/12/09 05:54:36;;;;;;;5.88;0.38;;;;;;;;;;5026700;28;20100;-77
2021/12/09 05:57:02;;;;;;;2.70;0.50;;;;;;;;;;5027740;28;20086;-76
2021/12/09 05:59:28;;;;;;;3.50;0.47;;;;;;;;;;5031341;28;20057;-76
2021/12/09 06:01:54;;;;;;;3.60;0.50;;;;;;;;;;5033193;28;20035;-76
2021/12/09 06:04:23;;;;;;;2.25;0.73;;;;;;;;;;5023589;28;20433;-76
2021/12/09 06:06:50;;;;;;;2.25;0.38;;;;;;;;;;5037614;28;20034;-76
2021/12/09 06:09:16;;;;;;;1.27;0.40;;;;;;;;;;5029350;28;20128;-77
2021/12/09 06:11:46;;;;;;;1.92;0.30;;;;;;;;;;5024919;28;20026;-77
2021/12/09 06:14:12;;;;;;;1.90;0.50;;;;;;;;;;5032887;28;20036;-77
2021/12/09 06:16:38;;;;;;;0.93;0.40;;;;;;;;;;5026326;28;20026;-76
2021/12/09 06:19:05;;;;;;;1.65;0.50;;;;;;;;;;5028119;28;20029;-77
2021/12/09 06:21:31;;;;;;;1.55;0.22;;;;;;;;;;5031874;28;20412;-76
2021/12/09 06:23:59;;;;;;;2.15;0.40;;;;;;;;;;5030465;28;20474;-77
2021/12/09 06:26:26;;;;;;;0.57;0.45;;;;;;;;;;5026637;28;20124;-76
2021/12/09 06:28:52;;;;;;;0.52;0.20;;;;;;;;;;5024271;28;20045;-76
2021/12/09 06:31:20;;;;;;;1.45;0.52;;;;;;;;;;5036790;28;20105;-75
2021/12/09 06:33:46;;;;;;;1.75;0.45;;;;;;;;;;5030493;28;20057;-76
2021/12/09 06:36:13;;;;;;;0.75;0.30;;;;;;;;;;5025220;28;20029;-76
2021/12/09 06:38:39;;;;;;;1.33;0.35;;;;;;;;;;5032737;28;20028;-76
2021/12/09 06:41:08;;;;;;;1.08;0.40;;;;;;;;;;5029029;28;20033;-75
2021/12/09 06:43:37;;;;;;;0.55;0.20;;;;;;;;;;5028209;28;20393;-76
2021/12/09 06:46:04;;;;;;;1.38;0.40;;;;;;;;;;5023729;28;20248;-76
2021/12/09 06:48:30;;;;;;;0.63;0.35;;;;;;;;;;5032137;28;20047;-76
2021/12/09 06:50:56;;;;;;;1.27;0.30;;;;;;;;;;5031484;28;20069;-76
2021/12/09 06:53:22;;;;;;;1.33;0.45;;;;;;;;;;5023308;28;20037;-75
2021/12/09 06:55:49;;;;;;;0.50;0.17;;;;;;;;;;5029813;28;20571;-74
2021/12/09 06:58:15;;;;;;;1.73;0.50;;;;;;;;;;5031294;28;20052;-74
2021/12/09 07:00:46;;;;;;;0.30;0.20;;;;;;;;;;5030840;28;20379;-75
2021/12/09 07:03:12;;;;;;;4.57;0.60;;;;;;;;;;5025898;28;20055;-74
2021/12/09 07:05:38;;;;;;;1.58;0.50;;;;;;;;;;5031604;28;20529;-74
2021/12/09 07:08:05;;;;;;;2.75;0.40;;;;;;;;;;5027505;28;20045;-75
2021/12/09 07:10:32;;;;;;;4.60;0.50;;;;;;;;;;5024617;28;20040;-76
2021/12/09 07:12:58;;;;;;;1.63;0.70;;;;;;;;;;5028328;28;20287;-77
2021/12/09 07:15:24;;;;;;;2.65;0.40;;;;;;;;;;5032058;28;20029;-77
2021/12/09 07:17:50;;;;;;;3.47;0.80;;;;;;;;;;5024089;28;20033;-77
2021/12/09 07:20:18;;;;;;;1.95;0.40;;;;;;;;;;5025038;28;20028;-76
2021/12/09 07:22:46;;;;;;;3.85;0.70;;;;;;;;;;5029804;28;20231;-75
2021/12/09 07:25:12;;;;;;;3.25;0.50;;;;;;;;;;5026513;28;20024;-77
2021/12/09 07:27:38;;;;;;;3.17;0.85;;;;;;;;;;5022467;28;20026;-77
2021/12/09 07:30:05;;;;;;;3.95;0.90;;;;;;;;;;5025297;28;20166;-77
2021/12/09 07:32:32;;;;;;;2.28;0.60;;;;;;;;;;5029979;28;20021;-74
2021/12/09 07:34:58;;;;;;;2.47;0.65;;;;;;;;;;5023996;28;20356;-76
2021/12/09 07:37:25;;;;;;;5.97;1.23;;;;;;;;;;5028859;28;20087;-75
2021/12/09 07:39:51;;;;;;;3.97;0.65;;;;;;;;;;5032022;28;20392;-74
2021/12/09 07:42:17;;;;;;;1.75;0.60;;;;;;;;;;5025991;28;20481;-76
2021/12/09 07:44:44;;;;;;;2.85;0.60;;;;;;;;;;5026173;28;20029;-75
2021/12/09 07:47:10;;;;;;;1.25;0.50;;;;;;;;;;5029351;28;20029;-75
2021/12/09 07:49:36;;;;;;;2.47;0.68;;;;;;;;;;5026820;28;20025;-77
2021/12/09 07:52:04;;;;;;;3.47;0.88;;;;;;;;;;5022890;28;20033;-77
2021/12/09 07:54:30;;;;;;;2.33;0.38;;;;;;;;;;5033932;28;20021;-74
2021/12/09 07:56:56;;;;;;;12.25;0.77;;;;;;;;;;5025658;28;20025;-76
2021/12/09 07:59:22;;;;;;;0.93;0.47;;;;;;;;;;5025513;28;20056;-75
2021/12/09 08:01:49;;;;;;;3.75;0.57;;;;;;;;;;5019778;28;20056;-75
2021/12/09 08:04:15;;;;;;;1.77;0.57;;;;;;;;;;5031887;28;20030;-76
2021/12/09 08:06:42;;;;;;;4.00;0.65;;;;;;;;;;5026561;28;20028;-76
2021/12/09 08:09:08;;;;;;;1.75;0.60;;;;;;;;;;5024213;28;20038;-76
2021/12/09 08:11:37;;;;;;;5.32;0.75;;;;;;;;;;5034860;28;20488;-76
2021/12/09 08:14:04;;;;;;;2.67;0.50;;;;;;;;;;5026726;28;20120;-75
2021/12/09 08:16:33;;;;;;;3.72;0.63;;;;;;;;;;5027059;28;20098;-76
2021/12/09 08:19:00;;;;;;;3.60;0.60;;;;;;;;;;5028342;28;20509;-75
2021/12/09 08:21:27;;;;;;;2.83;0.68;;;;;;;;;;5028312;28;20053;-77
2021/12/09 08:23:54;;;;;;;4.68;0.70;;;;;;;;;;5026154;28;20041;-77
2021/12/09 08:26:22;;;;;;;5.43;1.30;;;;;;;;;;5020494;28;20061;-76
2021/12/09 08:28:48;;;;;;;5.13;0.70;;;;;;;;;;5026878;28;20029;-75
2021/12/09 08:31:14;;;;;;;3.13;0.55;;;;;;;;;;5027850;28;20078;-76
2021/12/09 08:33:40;;;;;;;3.63;0.93;;;;;;;;;;5031259;28;20040;-75
2021/12/09 08:36:07;;;;;;;7.40;1.42;;;;;;;;;;5026410;28;20028;-75
2021/12/09 08:38:33;;;;;;;3.60;0.90;;;;;;;;;;5026431;28;20564;-75
2021/12/09 08:41:00;;;;;;;4.45;1.20;;;;;;;;;;5026717;28;20437;-76
2021/12/09 08:43:26;;;;;;;3.58;1.38;;;;;;;;;;5021339;28;20108;-75
2021/12/09 08:45:53;;;;;;;4.47;0.80;;;;;;;;;;5031703;28;20503;-75
2021/12/09 08:48:21;;;;;;;4.15;0.98;;;;;;;;;;5023983;28;20672;-75
2021/12/09 08:50:47;;;;;;;4.72;1.20;;;;;;;;;;5029615;28;20028;-75
2021/12/09 08:53:15;;;;;;;3.70;1.00;;;;;;;;;;5026091;28;20039;-76
2021/12/09 08:55:42;;;;;;;2.67;1.17;;;;;;;;;;5028162;28;20043;-76
2021/12/09 08:58:08;;;;;;;3.30;0.75;;;;;;;;;;5030447;28;20036;-76
2021/12/09 09:00:36;;;;;;;4.72;0.57;;;;;;;;;;5033549;28;20170;-77
2021/12/09 09:03:03;;;;;;;2.75;0.70;;;;;;;;;;5034667;28;20405;-75
2021/12/09 09:05:30;;;;;;;4.80;0.60;;;;;;;;;;5025121;28;20481;-77
2021/12/09 09:07:56;;;;;;;3.92;0.88;;;;;;;;;;5024077;28;20563;-76
2021/12/09 09:10:25;;;;;;;3.70;0.75;;;;;;;;;;5028578;28;20030;-74
2021/12/09 09:12:52;;;;;;;3.78;0.80;;;;;;;;;;5029455;28;20025;-74
2021/12/09 09:15:19;;;;;;;1.27;0.55;;;;;;;;;;5023592;28;20026;-76
2021/12/09 09:17:45;;;;;;;3.17;0.93;;;;;;;;;;5024439;28;20053;-75
2021/12/09 09:20:12;;;;;;;1.42;0.70;;;;;;;;;;5028199;28;20029;-77
2021/12/09 09:22:39;;;;;;;3.25;0.70;;;;;;;;;;5031903;28;20047;-76
2021/12/09 09:25:07;;;;;;;1.90;0.50;;;;;;;;;;5026711;28;20584;-77
2021/12/09 09:27:33;;;;;;;1.58;0.50;;;;;;;;;;5032456;28;20505;-77
2021/12/09 09:29:59;;;;;;;4.82;0.65;;;;;;;;;;5035946;28;20496;-77
2021/12/09 09:32:25;;;;;;;1.30;0.40;;;;;;;;;;5022871;28;20058;-76
2021/12/09 09:34:54;;;;;;;0.52;0.20;;;;;;;;;;5024472;28;20033;-77
2021/12/09 09:37:20;;;;;;;2.88;0.52;;;;;;;;;;5032749;28;20210;-78
2021/12/09 09:39:47;;;;;;;1.52;0.82;;;;;;;;;;5030106;28;20089;-76
2021/12/09 09:44:54;;;;;;;2.60;0.50;;;;;;;;;;5032240;28;20413;-77
2021/12/09 09:47:21;;;;;;;6.65;0.70;;;;;;;;;;5029940;28;20048;-77
2021/12/09 09:49:47;;;;;;;3.70;0.70;;;;;;;;;;5024036;28;20033;-75
2021/12/09 09:52:13;;;;;;;4.00;0.95;;;;;;;;;;5031816;28;20047;-77
2021/12/09 09:54:40;;;;;;;10.88;1.67;;;;;;;;;;5029410;28;20076;-75
2021/12/09 09:57:07;;;;;;;37.20;3.50;;;;;;;;;;5026331;28;20037;-76
2021/12/09 09:59:34;;;;;;;6.80;1.50;;;;;;;;;;5021805;28;20037;-76
2021/12/09 10:02:00;;;;;;;6.20;1.17;;;;;;;;;;5034145;28;20527;-76
2021/12/09 10:04:33;;;;;;;10.25;1.20;;;;;;;;;;5030740;28;20037;-76
2021/12/09 10:07:00;;;;;;;3.95;0.90;;;;;;;;;;5025242;28;20037;-76
2021/12/09 10:09:27;;;;;;;4.70;0.60;;;;;;;;;;5035630;28;20151;-76
2021/12/09 10:11:56;;;;;;;8.80;1.48;;;;;;;;;;5033081;28;20049;-73
2021/12/09 10:14:24;;;;;;;6.63;1.83;;;;;;;;;;5042147;28;20020;-73
2021/12/09 10:17:10;;;;;;;3.40;0.60;;;;;;;;;;5035185;28;20576;-73
2021/12/09 10:19:37;;;;;;;1.73;0.73;;;;;;;;;;5039516;28;20033;-72
2021/12/09 10:22:05;;;;;;;5.38;0.80;;;;;;;;;;5038765;28;20036;-71
2021/12/09 10:24:31;;;;;;;16.15;1.67;;;;;;;;;;5037874;28;20021;-74
2021/12/09 10:26:58;;;;;;;6.10;0.77;;;;;;;;;;5037077;28;20162;-72
2021/12/09 10:29:37;;;;;;;7.30;1.10;;;;;;;;;;5038029;28;20758;-74
2021/12/09 10:32:05;;;;;;;4.13;1.05;;;;;;;;;;5038188;28;20023;-77
2021/12/09 10:34:39;;;;;;;3.75;1.00;;;;;;;;;;5035225;28;20104;-74
2021/12/09 10:37:08;;;;;;;5.63;1.08;;;;;;;;;;5043386;28;20032;-75
2021/12/09 10:39:37;;;;;;;2.17;0.98;;;;;;;;;;5028229;28;20064;-74
2021/12/09 10:42:06;;;;;;;7.72;1.00;;;;;;;;;;5025384;28;20033;-73
2021/12/09 10:44:35;;;;;;;4.05;0.90;;;;;;;;;;5031778;28;20068;-73
2021/12/09 10:47:10;;;;;;;5.30;0.80;;;;;;;;;;5026015;28;20025;-77
2021/12/09 10:49:51;;;;;;;9.15;1.52;;;;;;;;;;5026249;28;20037;-75
2021/12/09 10:52:40;;;;;;;2.55;0.98;;;;;;;;;;5038338;28;20335;-78
2021/12/09 10:55:11;;;;;;;2.60;1.00;;;;;;;;;;5029657;28;20112;-74
2021/12/09 10:57:37;;;;;;;6.53;1.15;;;;;;;;;;5028934;28;20033;-73
2021/12/09 11:00:18;;;;;;;6.47;0.82;;;;;;;;;;5025134;28;20186;-73
2021/12/09 11:03:04;;;;;;;3.28;0.60;;;;;;;;;;5026119;28;20108;-74
2021/12/09 11:05:31;;;;;;;3.25;0.70;;;;;;;;;;5022544;28;20029;-73
2021/12/09 11:08:12;;;;;;;3.35;0.93;;;;;;;;;;5026786;28;20388;-75
2021/12/09 11:10:46;;;;;;;4.32;1.33;;;;;;;;;;5027578;28;20033;-74
2021/12/09 11:13:12;;;;;;;5.03;1.00;;;;;;;;;;5024967;28;20181;-78
2021/12/09 11:15:46;;;;;;;6.18;1.45;;;;;;;;;;5031307;28;20025;-74
2021/12/09 11:18:35;;;;;;;3.17;1.30;;;;;;;;;;5026094;28;20030;-74
2021/12/09 11:21:04;;;;;;;6.72;1.27;;;;;;;;;;5023783;28;20517;-74
2021/12/09 11:23:50;;;;;;;4.57;1.58;;;;;;;;;;5038924;28;20033;-73
2021/12/09 11:29:13;;;;;;;5.38;0.93;;;;;;;;;;5028756;28;20554;-78
2021/12/09 11:31:41;;;;;;;7.25;1.20;;;;;;;;;;5037008;28;20062;-73
2021/12/09 11:34:14;;;;;;;4.15;1.10;;;;;;;;;;5029437;28;20029;-77
2021/12/09 11:36:41;;;;;;;3.65;1.17;;;;;;;;;;5033598;28;20774;-75
2021/12/09 11:39:11;;;;;;;5.03;1.00;;;;;;;;;;5031804;28;20025;-74
2021/12/09 11:41:39;;;;;;;5.57;1.00;;;;;;;;;;5037249;28;20036;-70
2021/12/09 11:44:08;;;;;;;4.10;0.80;;;;;;;;;;5030457;28;20088;-74
2021/12/09 11:46:35;;;;;;;8.07;1.10;;;;;;;;;;5033205;28;20029;-74
2021/12/09 11:49:01;;;;;;;3.92;1.05;;;;;;;;;;5028042;28;20033;-72
2021/12/09 11:51:27;;;;;;;5.80;1.08;;;;;;;;;;5036415;28;20122;-73
2021/12/09 11:53:57;;;;;;;8.82;1.00;;;;;;;;;;5034101;28;20022;-74
2021/12/09 11:56:40;;;;;;;7.20;1.45;;;;;;;;;;5024156;28;20025;-76
2021/12/09 12:08:02;;;;;;;3.17;0.90;;;;;;;;;;5034382;28;20059;-74
2021/12/09 12:16:36;;;;;;;4.70;1.05;;;;;;;;;;5025809;28;20321;-76
2021/12/09 12:19:12;;;;;;;4.30;1.27;;;;;;;;;;5024902;28;20084;-76
2021/12/09 12:21:50;;;;;;;5.55;1.00;;;;;;;;;;5032631;28;20550;-73
2021/12/09 12:25:12;;;;;;;3.88;0.50;;;;;;;;;;5027425;28;20108;-75
2021/12/09 12:27:38;;;;;;;6.93;1.33;;;;;;;;;;5030926;28;20098;-73
2021/12/09 12:40:54;;;;;;;2.22;0.80;;;;;;;;;;5029085;28;20041;-74
2021/12/09 12:43:25;;;;;;;4.10;1.13;;;;;;;;;;5028603;28;20554;-75
2021/12/09 12:48:45;;;;;;;8.98;4.20;;;;;;;;;;5030941;28;20094;-74
2021/12/09 12:51:17;;;;;;;4.80;1.17;;;;;;;;;;5026398;28;20099;-75
2021/12/09 12:53:48;;;;;;;2.60;0.95;;;;;;;;;;5022197;28;20033;-73
2021/12/09 12:56:14;;;;;;;3.50;0.63;;;;;;;;;;5029367;28;20025;-74
2021/12/09 12:59:01;;;;;;;1.27;0.55;;;;;;;;;;5035356;28;20090;-72
2021/12/09 13:01:27;;;;;;;3.92;0.93;;;;;;;;;;5031774;28;20474;-72
2021/12/09 13:03:59;;;;;;;3.88;0.55;;;;;;;;;;5033942;28;20060;-76
2021/12/09 13:06:50;;;;;;;5.60;0.70;;;;;;;;;;5025445;28;20414;-72
2021/12/09 13:09:35;;;;;;;3.30;0.97;;;;;;;;;;5036483;28;20041;-76
2021/12/09 13:12:06;;;;;;;3.85;0.50;;;;;;;;;;5024797;28;20091;-74
2021/12/09 13:14:36;;;;;;;8.27;1.63;;;;;;;;;;5026414;28;20767;-71
2021/12/09 13:17:08;;;;;;;3.95;1.02;;;;;;;;;;5029504;28;20199;-75
2021/12/09 13:19:36;;;;;;;;;;;;;;;;;;5026544;28;20017;-73
2021/12/09 13:22:12;;;;;;;7.57;1.48;;;;;;;;;;5023584;28;19913;-72
2021/12/09 13:24:41;;;;;;;5.35;2.03;;;;;;;;;;5031826;28;20117;-72
2021/12/09 13:46:11;;;;;;;3.85;1.15;;;;;;;;;;5036598;28;20056;-73
2021/12/09 13:48:47;;;;;;;7.80;1.88;;;;;;;;;;5027294;28;20103;-73
2021/12/09 13:51:50;;;;;;;4.78;0.90;;;;;;;;;;5031514;28;20017;-74
2021/12/09 13:54:24;;;;;;;6.72;0.93;;;;;;;;;;5027746;28;20060;-77
2021/12/09 13:56:57;;;;;;;3.55;1.05;;;;;;;;;;5025394;28;20506;-73
2021/12/09 13:59:24;;;;;;;4.25;0.70;;;;;;;;;;5028199;28;20083;-74
2021/12/09 14:01:51;;;;;;;5.50;0.98;;;;;;;;;;5027112;28;20037;-75
2021/12/09 14:04:21;;;;;;;3.28;1.00;;;;;;;;;;5026635;28;20029;-72
2021/12/09 14:06:53;;;;;;;4.82;0.80;;;;;;;;;;5026468;28;20107;-73
2021/12/09 14:09:20;;;;;;;5.93;1.02;;;;;;;;;;5034630;28;20044;-73
2021/12/09 14:11:49;;;;;;;5.30;0.88;;;;;;;;;;5023042;28;20036;-73
2021/12/09 14:14:23;;;;;;;4.88;1.50;;;;;;;;;;5030322;28;20037;-74
2021/12/09 14:16:54;;;;;;;4.35;0.80;;;;;;;;;;5024829;28;20091;-73
2021/12/09 14:20:01;;;;;;;3.30;0.90;;;;;;;;;;5026550;28;20398;-74
2021/12/09 14:22:35;;;;;;;9.43;1.58;;;;;;;;;;5029138;28;20048;-73
2021/12/09 14:25:05;;;;;;;4.78;1.27;;;;;;;;;;5024008;28;20028;-78
2021/12/09 14:27:31;;;;;;;2.78;0.77;;;;;;;;;;5025863;28;20794;-75
2021/12/09 14:29:58;;;;;;;4.28;1.20;;;;;;;;;;5031843;28;20468;-74
2021/12/09 14:32:29;;;;;;;5.10;0.80;;;;;;;;;;5023369;28;20034;-71
2021/12/09 14:34:57;;;;;;;9.18;2.40;;;;;;;;;;5026408;28;20386;-73
2021/12/09 14:37:23;;;;;;;15.93;5.93;;;;;;;;;;5026877;28;20115;-72
2021/12/09 14:40:00;;;;;;;5.10;1.33;;;;;;;;;;5029729;28;20199;-73
2021/12/09 14:42:26;;;;;;;2.95;1.02;;;;;;;;;;5027652;28;20552;-72
2021/12/09 14:44:57;;;;;;;4.10;1.10;;;;;;;;;;5029701;28;20028;-74
2021/12/09 14:47:24;;;;;;;8.70;2.72;;;;;;;;;;5052040;28;20510;-71
2021/12/09 14:49:52;;;;;;;6.55;1.70;;;;;;;;;;5032602;28;20041;-71
2021/12/09 14:52:35;;;;;;;4.43;1.08;;;;;;;;;;5030045;28;20052;-72
2021/12/09 14:55:11;;;;;;;4.50;1.23;;;;;;;;;;5025437;28;20025;-72
2021/12/09 14:57:57;;;;;;;6.50;1.33;;;;;;;;;;5025574;28;20025;-74
2021/12/09 15:00:36;;;;;;;8.90;1.05;;;;;;;;;;5044941;28;20053;-72
2021/12/09 15:03:03;;;;;;;5.25;0.90;;;;;;;;;;5031268;28;20024;-74
2021/12/09 15:05:31;;;;;;;7.05;2.50;;;;;;;;;;5030967;28;20186;-75
2021/12/09 15:08:03;;;;;;;8.43;2.78;;;;;;;;;;5030630;28;20075;-72
2021/12/09 15:10:32;;;;;;;4.25;0.90;;;;;;;;;;5032150;28;20025;-72
2021/12/09 15:13:00;;;;;;;6.75;0.77;;;;;;;;;;5026012;28;20456;-71
2021/12/09 15:15:27;;;;;;;4.50;1.15;;;;;;;;;;5027316;28;20048;-73
2021/12/09 15:17:58;;;;;;;3.90;0.60;;;;;;;;;;5030258;28;20018;-74
2021/12/09 15:20:56;;;;;;;4.88;1.10;;;;;;;;;;5030905;28;20133;-72
2021/12/09 15:23:34;;;;;;;4.90;0.80;;;;;;;;;;5023731;28;20386;-75
2021/12/09 15:26:00;;;;;;;6.00;1.02;;;;;;;;;;5026388;28;20033;-71
2021/12/09 15:28:26;;;;;;;4.88;1.05;;;;;;;;;;5024583;28;20037;-75
2021/12/09 15:30:57;;;;;;;2.47;0.80;;;;;;;;;;5022650;28;20193;-72
2021/12/09 15:33:35;;;;;;;3.25;0.73;;;;;;;;;;5026943;28;20033;-74
2021/12/09 15:36:02;;;;;;;7.15;0.70;;;;;;;;;;5025200;28;20025;-72
2021/12/09 15:38:29;;;;;;;4.97;1.13;;;;;;;;;;5030774;28;20033;-77
2021/12/09 15:40:55;;;;;;;9.02;1.20;;;;;;;;;;5029986;28;20426;-72
2021/12/09 15:43:23;;;;;;;7.07;1.27;;;;;;;;;;5028392;28;20025;-72
2021/12/09 15:46:08;;;;;;;13.15;3.35;;;;;;;;;;5029436;28;20063;-74